East Texas Regional Airport
KGGG : now visible

Airfield :











YOU CAN JOIN US ON...

 
LOGIN :

Register | Disclaimer

   EN    FR    IT 

 









Legend :    VFR   Marginal VFR   IFR   Intensive IFR   Very Intensive IFR
Visi :
Ceiling :
>= 8 km
>= 3000ft
5 to 8 km
1000 to 3000 ft
1500m to 5 km
500 to 1000 ft
800 to 1500m
200 to 500 ft
< 800m
< 200 ft
Symbols :   Thunderstorms  Fog  Heavy snow  Heavy precipitations  Wind > 20 kt







- Airport Elevation : 365 ft
- IATA code : GGG


KGGG - East Texas Regional

CURRENT METAR :
  • 191153Z 30005KT 10SM CLR 10/09 A2991 RMK AO2 SLP126 60001 70045 T01000089 10133 20100 53017

EXPIRED METARs :
  • 191053Z 31008KT 10SM CLR 11/08 A2988 RMK AO2 SLP117 T01110083
  • 190953Z AUTO 30008KT 10SM BKN085 12/09 A2986 RMK AO2 RAE03 SLP110 P0000 T01170094

TAF KGGG
Valid from the 19 at 12:00 until the 20 at 12:00 UTC


191137Z 1912/2012 31008KT P6SM SCT100
FM191500 32015G25KT P6SM SCT100
FM200000 32011KT P6SM SKC
FM200400 30004KT P6SM SKC
KZFW FIR / North America



MET'MAP, your aeronautical weather chart ! - Copyright ORBIFLY December 2007 - Disclaimer

ORBIFLY MET'MAP TEAM :

Programming & Development : Alexandra Zaïnal
Concept & Development : Baudouin d'Aumeries
Co-Development & Prog : Marc-Olivier Méhu
Technical & hardware support : Manuel Goepfert

Contact : metmap@orbifly.com




SOURCES & CREDITS :

   NOAA       Earth
Advisory